This is the latest recevied weather packets stored in our database for station/object K7YVO. If no packets are shown the sender has not sent any weather packets the latest 10 day(s).
| Time | Temp. | Humidity | Pressure | Rain* | Wind** | Luminosity | Snow |
|---|---|---|---|---|---|---|---|
| 1777607859 | 21.11° C | 36% | 1016.8 hPa | 0 mm | - | 0 W/m² | - |
| 1777607555 | 21.11° C | 37% | 1016.8 hPa | 0 mm | - | 0 W/m² | - |
| 1777607252 | 21.11° C | 36% | 1016.8 hPa | 0 mm | - | 0 W/m² | - |
| 1777606948 | 21.11° C | 36% | 1016.7 hPa | 0 mm | - | 0 W/m² | - |
| 1777606644 | 21.11° C | 37% | 1016.5 hPa | 0 mm | - | 0 W/m² | - |
| 1777606340 | 21.67° C | 37% | 1016.5 hPa | 0 mm | - | 0 W/m² | - |
| 1777606035 | 21.67° C | 37% | 1016.5 hPa | 0 mm | - | 1 W/m² | - |
| 1777605731 | 22.22° C | 36% | 1016.5 hPa | 0 mm | - | 1 W/m² | - |
| 1777605429 | 22.22° C | 36% | 1016.4 hPa | 0 mm | - | 2 W/m² | - |
| 1777605127 | 22.78° C | 36% | 1016.3 hPa | 0 mm | - | 3 W/m² | - |
| 1777604822 | 22.78° C | 35% | 1016.3 hPa | 0 mm | - | 4 W/m² | - |
| 1777604519 | 23.33° C | 34% | 1016.5 hPa | 0 mm | - | 6 W/m² | - |
| 1777604214 | 23.89° C | 34% | 1016.4 hPa | 0 mm | - | 9 W/m² | - |
| 1777603910 | 23.89° C | 34% | 1016.4 hPa | 0 mm | - | 10 W/m² | - |
| 1777603607 | 24.44° C | 34% | 1016.4 hPa | 0 mm | - | 13 W/m² | - |
| 1777603303 | 25° C | 33% | 1016.3 hPa | 0 mm | - | 17 W/m² | - |
| 1777602999 | 25.56° C | 32% | 1016.3 hPa | 0 mm | - | 19 W/m² | - |
| 1777602694 | 26.67° C | 31% | 1016.3 hPa | 0 mm | - | 23 W/m² | - |
| 1777602389 | 26.67° C | 32% | 1016.1 hPa | 0 mm | - | 30 W/m² | - |
| 1777602086 | 26.67° C | 31% | 1016.3 hPa | 0 mm | - | 39 W/m² | - |
| 1777601781 | 26.67° C | 32% | 1016.4 hPa | 0 mm | - | 42 W/m² | - |
| 1777584746 | 29.44° C | 27% | 1018.3 hPa | 0 mm | - | 681 W/m² | - |
| 1777582924 | 27.78° C | 30% | 1018.5 hPa | 0 mm | - | 357 W/m² | - |
| 1777582317 | 27.78° C | 30% | 1018.5 hPa | 0 mm | - | 496 W/m² | - |
| 1777582016 | 27.78° C | 30% | 1018.5 hPa | 0 mm | - | 549 W/m² | - |
* Rain latest hour (hover to see other rain measurements)
** Current wind speed in m/s (hover to see current wind gust speed)